Terminal Aerodrome Forecast
Issued by NWS

Home | Current Version | Previous Version | Text Only | Print | Product List | Glossary On
Versions: 1 2 3 4 5 6 7 8 9 10 11 12 13 14 15 16 17 18 19 20
000
FTUS46 KMTR 280600 AAA
TAFSNS
TAF AMD
KSNS 280650Z 2807/2906 31004KT P6SM SCT008
      TEMPO 2807/2809 BKN008
     FM280900 30004KT P6SM OVC008
     FM281600 29008KT P6SM SKC
     FM281900 29015KT P6SM SKC
     FM290300 28009KT P6SM SCT009=

USA.gov is the U.S. government's official web portal to all federal, state and local government web resources and services.